San Luis County Regional Airport
KSBP : rendu visible

Aérodrome :











RETROUVEZ-NOUS SUR...

 
LOGIN :

S'inscrire | Disclaimer

   EN    FR    IT 

 









Légende :    VFR   VFR Marginal   IFR   IFR Intensif   IFR Très Intensif
Visi : 
Plafond : 
>= 8 km
>= 3000ft
5 à 8 km
1000 à 3000 ft
1500m à 5 km
500 à 1000 ft
800 à 1500m
200 à 500 ft
< 800m
< 200 ft
Symboles :   Orages  Brouillard  Fortes neiges  Fortes précipitations  Vent > 20 kt






- Altitude de l'aérodrome : 212 ft
- Code IATA : SBP


KSBP - San Luis County Regional

DERNIER METAR :
  • 011456Z 34010KT 10SM CLR 13/09 A2993 RMK AO2 SLP136 T01280089 53012

METARs EXPIRÉS :
  • 011356Z 34014G20KT 10SM CLR 12/08 A2991 RMK AO2 SLP129 T01220083
  • 011256Z 34014G24KT 10SM CLR 13/08 A2989 RMK AO2 SLP122 T01280083

TAF KSBP
Valide du 01 à 15h jusqu'au 02 à 12h UTC


011443Z 0115/0212 34015KT P6SM SKC
FM012000 32018G26KT P6SM SKC
FM020300 32010KT P6SM BKN250
FM020600 31006KT P6SM SKC



MET'MAP, la Météo Aéronautique d'un coup d'oeil ! - Copyright ORBIFLY Décembre 2007 - Disclaimer

ORBIFLY MET'MAP TEAM :

Programmation & Développement : Alexandra Zaïnal
Sur une idée originale de : Baudouin d'Aumeries
Assistance à la programmation : Marc-Olivier Méhu
Soutien technique & logistique : Manuel Goepfert

Contact : metmap@orbifly.com




SOURCES & CREDITS :

   NOAA       Earth
Advisory